Time;durP1;ratioP1;P1;durP2;ratioP2;P2;SDS_P1;SDS_P2;PMS_P1;PMS_P2;Temp;Humidity;BMP_temperature;BMP_pressure;BME280_temperature;BME280_humidity;BME280_pressure;Samples;Min_cycle;Max_cycle;Signal;HPM_P1;HPM_P2
2022/10/17 00:01:11;;;;;;;3.15;1.67;;;11.80;99.90;;;;;;6194714;23;20197;-91
2022/10/17 00:03:39;;;;;;;3.28;1.77;;;11.80;99.90;;;;;;6195067;23;20020;-96
2022/10/17 00:06:07;;;;;;;3.97;1.77;;;11.80;99.90;;;;;;6194969;23;20016;-93
2022/10/17 00:08:33;;;;;;;4.25;1.83;;;11.70;99.90;;;;;;6194993;23;20433;-95
2022/10/17 00:11:04;;;;;;;5.68;1.95;;;11.70;99.90;;;;;;6194483;23;20020;-93
2022/10/17 00:13:30;;;;;;;5.20;1.90;;;11.80;99.90;;;;;;6194965;23;20059;-92
2022/10/17 00:15:56;;;;;;;4.15;1.98;;;11.80;99.90;;;;;;6169928;23;20023;-91
2022/10/17 00:18:21;;;;;;;4.38;1.92;;;11.80;99.90;;;;;;6171069;23;20016;-92
2022/10/17 00:20:47;;;;;;;4.03;1.40;;;11.90;99.90;;;;;;6197336;23;20016;-90
2022/10/17 00:23:13;;;;;;;3.97;1.60;;;11.90;99.90;;;;;;6199620;23;20433;-92
2022/10/17 00:25:39;;;;;;;5.27;1.60;;;11.90;99.90;;;;;;6204798;23;20541;-94
2022/10/17 00:28:08;;;;;;;3.10;1.63;;;11.90;99.90;;;;;;6215017;23;20016;-92
2022/10/17 00:30:33;;;;;;;5.80;1.92;;;11.90;99.90;;;;;;6203243;23;20050;-93
2022/10/17 00:32:59;;;;;;;5.13;1.63;;;11.90;99.90;;;;;;6225247;22;20004;-91
2022/10/17 00:35:25;;;;;;;5.03;1.73;;;11.90;99.90;;;;;;6193831;23;20283;-91
2022/10/17 00:37:50;;;;;;;4.73;1.83;;;11.90;99.90;;;;;;6198242;23;20019;-92
2022/10/17 00:40:16;;;;;;;4.60;1.73;;;11.90;99.90;;;;;;6197486;23;20255;-93
2022/10/17 00:42:42;;;;;;;3.60;1.77;;;11.90;99.90;;;;;;6172160;23;20016;-92
2022/10/17 00:45:17;;;;;;;5.07;1.90;;;11.90;99.90;;;;;;6171779;23;20453;-91
2022/10/17 00:48:10;;;;;;;4.20;1.70;;;11.90;99.90;;;;;;6196210;23;20572;-92
2022/10/17 00:50:38;;;;;;;3.60;1.73;;;11.90;99.90;;;;;;6196446;23;20074;-94
2022/10/17 00:53:05;;;;;;;5.43;1.90;;;11.90;99.90;;;;;;6196705;23;20023;-91
2022/10/17 00:55:32;;;;;;;;;;;11.90;99.90;;;;;;6197072;23;20453;-94
2022/10/17 00:58:01;;;;;;;4.68;1.75;;;11.90;99.90;;;;;;6196714;23;19922;-89
2022/10/17 01:00:27;;;;;;;5.47;2.15;;;11.80;99.90;;;;;;6196258;23;20082;-94
2022/10/17 01:02:53;;;;;;;2.60;1.43;;;11.80;99.90;;;;;;6196384;23;20020;-95
2022/10/17 01:05:19;;;;;;;4.32;2.10;;;11.80;99.90;;;;;;6197514;23;20020;-90
2022/10/17 01:07:46;;;;;;;6.28;1.77;;;11.80;99.90;;;;;;6171081;22;20010;-89
2022/10/17 01:10:13;;;;;;;4.90;1.77;;;11.80;99.90;;;;;;6219561;23;20050;-90
2022/10/17 01:13:02;;;;;;;3.63;2.00;;;11.80;99.90;;;;;;6199376;23;20017;-90
2022/10/17 01:15:34;;;;;;;3.67;1.77;;;11.80;99.90;;;;;;6196689;23;20016;-91
2022/10/17 01:18:11;;;;;;;6.18;1.48;;;11.80;99.90;;;;;;6196413;23;20044;-91
2022/10/17 01:21:15;;;;;;;4.35;1.70;;;11.80;99.90;;;;;;6196140;23;20318;-90
2022/10/17 01:23:50;;;;;;;3.42;1.70;;;11.90;99.90;;;;;;6115627;23;20016;-91
2022/10/17 01:26:39;;;;;;;2.83;1.30;;;11.90;99.90;;;;;;6196475;23;20388;-92
2022/10/17 01:29:12;;;;;;;3.72;1.63;;;11.90;99.90;;;;;;6195953;23;20019;-93
2022/10/17 01:31:47;;;;;;;4.93;1.23;;;11.90;99.90;;;;;;6195969;23;20146;-91
2022/10/17 01:34:48;;;;;;;4.47;1.52;;;12.00;99.90;;;;;;6196190;23;20441;-94
2022/10/17 01:37:18;;;;;;;3.70;1.58;;;12.00;99.90;;;;;;6171137;23;20078;-92
2022/10/17 01:39:51;;;;;;;3.53;1.63;;;12.00;99.90;;;;;;6196310;23;20078;-92
2022/10/17 01:42:16;;;;;;;3.60;1.40;;;12.00;99.90;;;;;;6196197;23;20042;-92
2022/10/17 01:44:56;;;;;;;4.90;1.40;;;12.10;99.90;;;;;;6196014;23;20018;-92
2022/10/17 01:47:27;;;;;;;3.40;1.50;;;12.10;99.90;;;;;;6196362;23;20016;-94
2022/10/17 01:49:58;;;;;;;2.92;1.65;;;12.10;99.90;;;;;;6196183;23;20429;-93
2022/10/17 01:52:29;;;;;;;5.43;2.28;;;12.10;99.90;;;;;;6196191;23;20020;-91
2022/10/17 01:55:02;;;;;;;6.85;2.40;;;12.20;99.90;;;;;;6196072;23;20016;-92
2022/10/17 01:57:50;;;;;;;6.75;2.95;;;12.20;99.90;;;;;;6195914;23;20016;-91
2022/10/17 02:00:22;;;;;;;7.88;3.20;;;12.20;99.90;;;;;;6195764;23;20016;-91
2022/10/17 02:02:54;;;;;;;8.48;4.53;;;12.20;99.90;;;;;;6195930;23;20012;-93
2022/10/17 02:05:23;;;;;;;9.98;4.85;;;12.30;99.90;;;;;;6196038;23;20015;-91
2022/10/17 02:07:49;;;;;;;13.32;5.90;;;12.30;99.90;;;;;;6196074;23;20008;-94
2022/10/17 02:10:53;;;;;;;8.93;4.90;;;12.30;99.90;;;;;;6195742;23;20107;-92
2022/10/17 02:13:40;;;;;;;8.60;4.57;;;12.30;99.90;;;;;;6176581;23;20250;-91
2022/10/17 02:16:14;;;;;;;9.02;4.28;;;12.30;99.90;;;;;;6195873;23;20020;-94
2022/10/17 02:19:07;;;;;;;7.30;3.72;;;12.30;99.90;;;;;;6195813;23;20064;-92
2022/10/17 02:21:40;;;;;;;7.63;4.05;;;12.30;99.90;;;;;;6195738;23;20357;-91
2022/10/17 02:24:20;;;;;;;7.13;4.00;;;12.30;99.90;;;;;;6195890;23;20022;-93
2022/10/17 02:26:51;;;;;;;7.70;3.47;;;12.40;99.90;;;;;;6195545;23;20018;-92
2022/10/17 02:29:27;;;;;;;8.80;3.80;;;12.30;99.90;;;;;;6195655;23;20027;-91
2022/10/17 02:32:09;;;;;;;7.68;3.60;;;12.30;99.90;;;;;;6195748;23;20388;-94
2022/10/17 02:34:43;;;;;;;8.27;3.47;;;12.30;99.90;;;;;;6195648;23;20024;-91
2022/10/17 02:37:11;;;;;;;6.82;3.10;;;12.30;99.90;;;;;;6195816;23;20425;-92
2022/10/17 02:39:39;;;;;;;7.75;3.05;;;12.30;99.90;;;;;;6195724;23;20024;-91
2022/10/17 02:42:13;;;;;;;5.65;2.65;;;12.30;99.90;;;;;;6195313;23;20052;-93
2022/10/17 02:44:42;;;;;;;6.90;2.35;;;12.30;99.90;;;;;;6195905;23;20099;-93
2022/10/17 02:47:35;;;;;;;5.75;2.50;;;12.30;99.90;;;;;;6195562;23;20027;-92
2022/10/17 02:50:01;;;;;;;4.43;1.98;;;12.30;99.90;;;;;;6195648;23;20016;-91
2022/10/17 02:52:35;;;;;;;4.45;2.13;;;12.30;99.90;;;;;;6195635;23;20012;-92
2022/10/17 02:55:12;;;;;;;4.47;2.50;;;12.30;99.90;;;;;;6195422;23;20108;-92
2022/10/17 02:57:43;;;;;;;4.25;2.50;;;12.30;99.90;;;;;;6195779;23;20016;-92
2022/10/17 03:00:12;;;;;;;5.05;2.45;;;12.30;99.90;;;;;;6195552;23;20481;-91
2022/10/17 03:02:46;;;;;;;6.65;2.25;;;12.30;99.90;;;;;;6195866;23;20012;-92
2022/10/17 03:05:15;;;;;;;4.65;2.28;;;12.40;99.90;;;;;;6195286;23;20095;-92
2022/10/17 03:07:41;;;;;;;4.63;2.20;;;12.40;99.90;;;;;;6195533;23;20016;-94
2022/10/17 03:10:13;;;;;;;4.63;2.63;;;12.40;99.90;;;;;;6196555;23;20020;-92
2022/10/17 03:12:39;;;;;;;5.85;2.60;;;12.40;99.90;;;;;;6197960;23;20016;-93
2022/10/17 03:15:06;;;;;;;5.43;2.92;;;12.40;99.90;;;;;;6211304;22;20011;-93
2022/10/17 03:17:32;;;;;;;6.72;2.67;;;12.40;99.90;;;;;;6221897;23;20020;-92
2022/10/17 03:19:57;;;;;;;6.07;2.92;;;12.50;99.90;;;;;;6208495;23;20400;-96
2022/10/17 03:22:23;;;;;;;4.73;2.33;;;12.50;99.90;;;;;;6179796;23;20016;-89
2022/10/17 03:24:49;;;;;;;6.18;2.35;;;12.50;99.90;;;;;;6200588;23;20027;-92
2022/10/17 03:27:15;;;;;;;6.50;2.60;;;12.50;99.90;;;;;;6195207;23;20035;-92
2022/10/17 03:29:43;;;;;;;5.95;2.70;;;12.50;99.90;;;;;;6194877;23;20016;-93
2022/10/17 03:32:09;;;;;;;5.20;2.83;;;12.50;99.90;;;;;;6194977;23;20023;-91
2022/10/17 03:34:34;;;;;;;6.05;3.35;;;12.60;99.90;;;;;;6170208;23;20095;-92
2022/10/17 03:37:00;;;;;;;5.05;2.88;;;12.60;99.90;;;;;;6194818;23;20051;-93
2022/10/17 03:39:26;;;;;;;5.70;3.23;;;12.60;99.90;;;;;;6195222;23;20074;-92
2022/10/17 03:41:52;;;;;;;5.10;2.97;;;12.60;99.90;;;;;;6182651;23;20247;-93
2022/10/17 03:44:17;;;;;;;6.17;3.27;;;12.60;99.90;;;;;;6195031;23;20016;-92
2022/10/17 03:46:43;;;;;;;6.07;3.30;;;12.60;99.90;;;;;;6170102;23;20023;-93
2022/10/17 03:49:09;;;;;;;6.50;3.13;;;12.60;99.90;;;;;;6170286;23;20095;-91
2022/10/17 03:51:35;;;;;;;5.80;3.38;;;12.60;99.90;;;;;;6211561;23;20438;-92
2022/10/17 03:54:01;;;;;;;7.03;3.53;;;12.60;99.90;;;;;;6175671;23;20020;-91
2022/10/17 03:56:27;;;;;;;6.65;3.63;;;12.60;99.90;;;;;;6194961;23;20012;-92
2022/10/17 03:58:54;;;;;;;7.65;3.88;;;12.70;99.90;;;;;;6194815;23;20020;-92
2022/10/17 04:01:20;;;;;;;7.10;4.03;;;12.60;99.90;;;;;;6193414;23;20012;-91
2022/10/17 04:03:51;;;;;;;8.35;4.38;;;12.60;99.90;;;;;;6194975;23;20016;-93
2022/10/17 04:06:16;;;;;;;8.93;4.35;;;12.60;99.90;;;;;;6194995;23;20016;-92
2022/10/17 04:08:42;;;;;;;9.07;4.68;;;12.70;99.90;;;;;;6194774;23;20497;-92
2022/10/17 04:11:12;;;;;;;7.90;4.30;;;12.70;99.90;;;;;;6194481;22;20511;-92
2022/10/17 04:13:38;;;;;;;7.50;4.10;;;12.70;99.90;;;;;;6194750;23;20393;-91
2022/10/17 04:16:09;;;;;;;8.52;4.70;;;12.70;99.90;;;;;;6194774;23;20020;-93
2022/10/17 04:18:35;;;;;;;9.95;4.28;;;12.70;99.90;;;;;;6170556;23;20050;-94
2022/10/17 04:21:03;;;;;;;7.83;4.17;;;12.70;99.90;;;;;;6194541;23;20020;-91
2022/10/17 04:23:28;;;;;;;8.07;4.60;;;12.70;99.90;;;;;;6218575;23;20095;-91
2022/10/17 04:25:58;;;;;;;7.07;4.43;;;12.60;99.90;;;;;;6194683;23;20052;-94
2022/10/17 04:28:25;;;;;;;7.47;4.53;;;12.70;99.90;;;;;;6170275;23;20023;-91
2022/10/17 04:30:57;;;;;;;;;;;12.70;99.90;;;;;;6195531;23;20019;-91
2022/10/17 04:33:23;;;;;;;6.40;4.10;;;12.70;99.90;;;;;;6194661;23;19920;-92
2022/10/17 04:36:00;;;;;;;6.67;3.60;;;12.70;99.90;;;;;;6169875;23;20017;-90
2022/10/17 04:38:27;;;;;;;7.60;4.25;;;12.70;99.90;;;;;;6194790;23;20341;-95
2022/10/17 04:40:53;;;;;;;6.85;4.03;;;12.70;99.90;;;;;;6194831;23;20429;-91
2022/10/17 04:43:19;;;;;;;6.78;3.60;;;12.70;99.90;;;;;;6170113;23;20099;-92
2022/10/17 04:45:45;;;;;;;6.97;3.55;;;12.70;99.90;;;;;;6194909;23;20017;-91
2022/10/17 04:48:11;;;;;;;6.00;3.43;;;12.60;99.90;;;;;;6145385;23;20027;-90
2022/10/17 04:50:36;;;;;;;6.67;3.17;;;12.70;99.90;;;;;;6194837;23;20013;-93
2022/10/17 04:53:02;;;;;;;6.77;3.63;;;12.70;99.90;;;;;;6194632;23;20588;-90
2022/10/17 04:55:28;;;;;;;6.10;3.30;;;12.70;99.90;;;;;;6194734;23;20020;-91
2022/10/17 04:57:53;;;;;;;5.53;3.47;;;12.70;99.90;;;;;;6194910;23;20012;-94
2022/10/17 05:00:19;;;;;;;6.90;3.50;;;12.80;99.90;;;;;;6170040;23;20308;-94
2022/10/17 05:02:45;;;;;;;7.07;3.47;;;12.80;99.90;;;;;;6169904;23;20022;-91
2022/10/17 05:05:11;;;;;;;6.53;3.93;;;12.80;99.90;;;;;;6195804;23;20016;-92
2022/10/17 05:07:40;;;;;;;6.37;3.43;;;12.80;99.90;;;;;;6196369;23;20289;-94
2022/10/17 05:10:06;;;;;;;6.72;3.38;;;12.80;99.90;;;;;;6196617;23;20377;-91
2022/10/17 05:12:32;;;;;;;8.48;3.58;;;12.90;99.90;;;;;;6171184;23;20020;-91
2022/10/17 05:14:58;;;;;;;7.22;3.72;;;12.90;99.90;;;;;;6196518;23;20107;-93
2022/10/17 05:17:23;;;;;;;6.20;3.60;;;12.90;99.90;;;;;;6199416;23;20385;-92
2022/10/17 05:19:52;;;;;;;7.83;3.90;;;12.90;99.90;;;;;;6174050;22;20243;-93
2022/10/17 05:22:18;;;;;;;8.43;4.13;;;13.00;99.90;;;;;;6196054;23;20016;-92
2022/10/17 05:24:44;;;;;;;7.43;4.00;;;13.00;99.90;;;;;;6196409;23;20020;-92
2022/10/17 05:27:09;;;;;;;8.57;3.60;;;13.00;99.90;;;;;;6195988;23;20012;-91
2022/10/17 05:29:35;;;;;;;7.57;3.80;;;13.00;99.90;;;;;;6196216;23;20472;-91
2022/10/17 05:32:01;;;;;;;8.37;4.30;;;13.00;99.90;;;;;;6196386;23;20091;-90
2022/10/17 05:34:27;;;;;;;6.20;3.53;;;13.00;99.90;;;;;;6195808;23;20016;-92
2022/10/17 05:36:52;;;;;;;7.23;4.17;;;13.10;99.90;;;;;;6196237;23;20243;-93
2022/10/17 05:39:18;;;;;;;7.18;4.45;;;13.10;99.90;;;;;;6196213;23;20091;-92
2022/10/17 05:41:45;;;;;;;7.57;4.07;;;13.10;99.90;;;;;;6196110;23;20095;-91
2022/10/17 05:44:12;;;;;;;8.90;4.40;;;13.10;99.90;;;;;;6171609;23;20255;-90
2022/10/17 05:46:38;;;;;;;7.47;4.10;;;13.10;99.90;;;;;;6171277;23;20024;-94
2022/10/17 05:49:04;;;;;;;7.28;3.92;;;13.10;99.90;;;;;;6196146;23;20106;-90
2022/10/17 05:51:32;;;;;;;7.75;4.32;;;13.10;99.90;;;;;;6202589;22;20008;-90
2022/10/17 05:53:58;;;;;;;7.82;3.90;;;13.10;99.90;;;;;;6222670;23;20044;-91
2022/10/17 05:56:24;;;;;;;8.35;4.20;;;13.10;99.90;;;;;;6183992;23;20070;-92
2022/10/17 05:58:50;;;;;;;7.50;4.07;;;13.10;99.90;;;;;;6196940;23;20024;-91
2022/10/17 06:01:16;;;;;;;9.50;4.50;;;13.10;99.90;;;;;;6196808;23;20247;-91
2022/10/17 06:03:42;;;;;;;7.03;3.83;;;13.10;99.90;;;;;;6197283;23;20016;-92
2022/10/17 06:06:11;;;;;;;9.30;4.55;;;13.10;99.90;;;;;;6173115;23;20127;-93
2022/10/17 06:08:37;;;;;;;7.68;4.10;;;13.10;99.90;;;;;;6196710;23;20020;-92
2022/10/17 06:11:03;;;;;;;7.10;4.22;;;13.20;99.90;;;;;;6171958;22;20012;-92
2022/10/17 06:13:29;;;;;;;7.45;4.45;;;13.20;99.90;;;;;;6225889;22;20424;-90
2022/10/17 06:15:55;;;;;;;11.82;4.65;;;13.20;99.90;;;;;;6225753;22;20015;-91
2022/10/17 06:18:21;;;;;;;8.07;4.32;;;13.20;99.90;;;;;;6225837;22;20103;-91
2022/10/17 06:20:47;;;;;;;7.53;4.17;;;13.20;99.90;;;;;;6225276;22;20028;-90
2022/10/17 06:23:13;;;;;;;8.55;4.55;;;13.20;99.90;;;;;;6225765;22;20289;-89
2022/10/17 06:25:39;;;;;;;8.20;4.40;;;13.30;99.90;;;;;;6200679;22;20015;-90
2022/10/17 06:28:04;;;;;;;8.47;4.77;;;13.30;99.90;;;;;;6225565;22;20861;-89
2022/10/17 06:30:30;;;;;;;7.68;4.55;;;13.30;99.90;;;;;;6225413;22;20277;-93
2022/10/17 06:32:56;;;;;;;8.23;4.45;;;13.30;99.90;;;;;;6225348;22;20077;-89
2022/10/17 06:35:24;;;;;;;8.23;4.60;;;13.30;99.90;;;;;;6225045;22;20070;-91
2022/10/17 06:37:50;;;;;;;7.88;4.50;;;13.30;99.90;;;;;;6224096;22;20734;-88
2022/10/17 06:40:16;;;;;;;9.20;4.72;;;13.40;99.90;;;;;;6225330;22;20054;-92
2022/10/17 06:43:03;;;;;;;10.05;4.85;;;13.30;99.90;;;;;;6225142;22;20016;-88
2022/10/17 06:45:29;;;;;;;9.40;4.70;;;13.40;99.90;;;;;;6225094;22;20047;-93
2022/10/17 06:47:55;;;;;;;8.83;4.00;;;13.40;99.90;;;;;;6225344;22;20016;-88
2022/10/17 06:50:20;;;;;;;11.00;5.47;;;13.40;99.90;;;;;;6277743;22;20568;-87
2022/10/17 06:52:50;;;;;;;9.30;4.90;;;13.40;99.90;;;;;;6225097;22;20050;-90
2022/10/17 06:55:21;;;;;;;8.57;4.20;;;13.40;99.90;;;;;;6225145;22;20169;-93
2022/10/17 07:05:41;;;;;;;7.75;4.25;;;13.50;99.90;;;;;;6276362;22;20030;-90
2022/10/17 07:08:07;;;;;;;6.93;3.93;;;13.50;99.90;;;;;;6199839;22;20453;-91
2022/10/17 07:10:37;;;;;;;8.10;4.88;;;13.50;99.90;;;;;;6224826;22;20015;-93
2022/10/17 07:13:23;;;;;;;8.70;4.30;;;13.50;99.90;;;;;;6224570;22;20019;-91
2022/10/17 07:16:11;;;;;;;7.78;4.18;;;13.50;99.90;;;;;;6224138;22;20020;-91
2022/10/17 07:18:37;;;;;;;10.90;4.68;;;13.60;99.90;;;;;;6225580;22;20090;-93
2022/10/17 07:21:04;;;;;;;9.80;4.53;;;13.60;99.90;;;;;;6200324;22;20020;-89
2022/10/17 07:23:29;;;;;;;7.53;4.22;;;13.60;99.90;;;;;;6225046;22;20012;-90
2022/10/17 07:26:01;;;;;;;8.55;4.32;;;13.70;99.90;;;;;;6250135;22;20112;-90
2022/10/17 07:28:27;;;;;;;8.10;4.65;;;13.70;99.90;;;;;;6225176;22;20043;-91
2022/10/17 07:30:54;;;;;;;8.95;4.47;;;13.70;99.90;;;;;;6249680;22;20441;-86
2022/10/17 07:33:19;;;;;;;11.95;4.30;;;13.80;99.90;;;;;;6224745;22;20011;-88
2022/10/17 07:35:45;;;;;;;8.15;4.43;;;13.80;99.90;;;;;;6224584;22;20104;-90
2022/10/17 07:38:11;;;;;;;8.53;4.50;;;13.80;99.90;;;;;;6224771;22;20015;-89
2022/10/17 07:40:36;;;;;;;6.73;3.90;;;13.90;99.90;;;;;;6199520;22;20019;-91
2022/10/17 07:43:02;;;;;;;8.25;4.28;;;14.00;99.90;;;;;;6222771;22;20050;-89
2022/10/17 07:45:28;;;;;;;10.77;4.47;;;14.00;99.90;;;;;;6224424;22;20015;-92
2022/10/17 07:47:57;;;;;;;7.43;4.00;;;14.00;99.90;;;;;;6224515;22;20023;-89
2022/10/17 07:50:23;;;;;;;9.15;4.50;;;14.10;99.90;;;;;;6250068;22;20098;-91
2022/10/17 07:52:49;;;;;;;7.82;4.38;;;14.10;99.90;;;;;;6226381;22;20015;-88
2022/10/17 07:55:15;;;;;;;9.10;5.00;;;14.20;99.90;;;;;;6263480;22;20030;-89
2022/10/17 07:57:41;;;;;;;8.65;4.32;;;14.30;99.90;;;;;;6246311;22;20337;-91
2022/10/17 08:00:08;;;;;;;8.25;4.53;;;14.30;99.90;;;;;;6257620;22;20091;-89
2022/10/17 08:02:33;;;;;;;8.35;4.35;;;14.30;99.90;;;;;;6224878;22;20337;-88
2022/10/17 08:04:59;;;;;;;8.60;4.63;;;14.40;99.90;;;;;;6199541;22;20077;-90
2022/10/17 08:07:25;;;;;;;9.00;4.80;;;14.40;99.90;;;;;;6249580;22;20242;-88
2022/10/17 08:09:50;;;;;;;8.98;4.35;;;14.50;99.90;;;;;;6249685;22;20027;-88
2022/10/17 08:12:16;;;;;;;11.02;4.85;;;14.50;99.90;;;;;;6183860;23;20027;-91
2022/10/17 08:14:43;;;;;;;9.57;4.88;;;14.60;99.90;;;;;;6194002;23;20103;-89
2022/10/17 08:17:09;;;;;;;8.25;4.18;;;14.70;99.90;;;;;;6194233;23;20095;-87
2022/10/17 08:19:39;;;;;;;8.20;4.25;;;14.80;99.90;;;;;;6218811;23;20024;-88
2022/10/17 08:22:05;;;;;;;8.80;4.28;;;14.90;99.90;;;;;;6219254;23;20037;-89
2022/10/17 08:24:31;;;;;;;9.25;4.47;;;15.00;99.90;;;;;;6194671;23;20116;-94
2022/10/17 08:26:57;;;;;;;8.10;4.20;;;15.10;99.90;;;;;;6194210;23;20016;-86
2022/10/17 08:29:23;;;;;;;7.88;4.57;;;15.10;99.90;;;;;;6193842;23;20099;-88
2022/10/17 08:31:49;;;;;;;8.00;4.43;;;15.30;99.90;;;;;;6194319;23;20055;-89
2022/10/17 08:34:14;;;;;;;8.40;4.30;;;15.40;99.90;;;;;;6194079;23;20020;-87
2022/10/17 08:36:40;;;;;;;8.20;4.28;;;15.40;99.90;;;;;;6194116;23;20020;-89
2022/10/17 08:39:06;;;;;;;8.63;4.38;;;15.50;99.90;;;;;;6194923;23;20012;-93
2022/10/17 08:41:44;;;;;;;8.40;4.38;;;15.60;99.90;;;;;;6195719;23;20043;-90
2022/10/17 08:44:50;;;;;;;8.25;4.18;;;15.70;99.90;;;;;;6247727;23;20081;-89
2022/10/17 08:47:41;;;;;;;7.68;3.97;;;15.80;99.90;;;;;;6196049;23;20020;-88
2022/10/17 08:50:23;;;;;;;8.93;4.13;;;15.90;99.90;;;;;;6194730;23;20016;-89
2022/10/17 08:52:54;;;;;;;7.13;3.80;;;15.90;99.90;;;;;;6221397;23;20020;-91
2022/10/17 08:55:37;;;;;;;7.85;4.07;;;16.00;99.90;;;;;;6196166;23;20020;-91
2022/10/17 08:58:17;;;;;;;7.10;3.83;;;16.00;99.90;;;;;;6221485;23;20020;-89
2022/10/17 09:01:01;;;;;;;10.27;4.22;;;16.00;99.90;;;;;;6196744;23;20091;-94
2022/10/17 09:04:03;;;;;;;8.95;4.30;;;16.10;99.90;;;;;;6196028;23;20473;-89
2022/10/17 09:06:39;;;;;;;8.82;4.40;;;16.10;99.90;;;;;;6219920;23;20095;-90
2022/10/17 09:09:26;;;;;;;7.70;3.88;;;16.20;99.90;;;;;;6218975;23;20020;-88
2022/10/17 09:12:21;;;;;;;7.28;3.85;;;16.30;99.90;;;;;;6204169;22;20020;-89
2022/10/17 09:15:31;;;;;;;10.23;4.47;;;16.30;99.90;;;;;;6225229;22;20028;-90
2022/10/17 09:18:14;;;;;;;9.40;4.55;;;16.30;99.90;;;;;;6077509;23;20101;-88
2022/10/17 09:20:50;;;;;;;8.45;3.95;;;16.40;99.90;;;;;;6247503;22;20053;-91
2022/10/17 09:23:20;;;;;;;7.57;4.03;;;16.40;99.90;;;;;;6226314;22;20518;-90
2022/10/17 09:25:55;;;;;;;7.63;3.40;;;16.40;99.90;;;;;;6225890;22;20022;-92
2022/10/17 09:28:24;;;;;;;7.80;4.03;;;16.40;99.90;;;;;;6226214;22;20011;-90
2022/10/17 09:31:17;;;;;;;139.20;54.53;;;16.50;99.90;;;;;;6226209;22;20449;-92
2022/10/17 09:34:07;;;;;;;46.65;35.25;;;16.50;99.90;;;;;;6225528;22;20019;-90
2022/10/17 09:36:35;;;;;;;20.23;18.08;;;16.60;99.90;;;;;;6225859;22;20019;-91
2022/10/17 09:39:13;;;;;;;17.27;14.23;;;16.60;99.90;;;;;;6251405;22;20340;-90
2022/10/17 09:41:48;;;;;;;8.98;5.22;;;16.60;99.90;;;;;;6226272;22;20073;-90
2022/10/17 09:44:21;;;;;;;19.42;17.35;;;16.70;99.90;;;;;;6225976;22;20012;-91
2022/10/17 09:47:30;;;;;;;7.20;4.10;;;16.70;99.90;;;;;;6249969;22;20018;-91
2022/10/17 09:57:54;;;;;;;7.60;4.68;;;16.80;99.90;;;;;;6227352;22;20053;-91
2022/10/17 10:36:43;;;;;;;10.07;4.63;;;16.50;99.90;;;;;;6309548;22;20030;-90
2022/10/17 10:40:00;;;;;;;9.65;4.68;;;16.50;99.90;;;;;;6256519;22;20448;-91
2022/10/17 10:42:38;;;;;;;6.07;3.88;;;16.50;99.90;;;;;;6174120;22;20015;-92
2022/10/17 10:45:19;;;;;;;9.02;4.28;;;16.40;99.90;;;;;;6255579;22;20086;-92
2022/10/17 10:48:17;;;;;;;10.20;6.22;;;16.40;99.90;;;;;;6256008;22;20019;-91
2022/10/17 10:50:47;;;;;;;8.30;5.45;;;16.40;99.90;;;;;;6256417;22;20015;-93
2022/10/17 10:53:44;;;;;;;9.32;5.65;;;16.40;99.90;;;;;;6256220;22;20007;-91
2022/10/17 12:15:13;;;;;;;6.22;2.72;;;16.40;99.90;;;;;;6273848;22;20031;-90
2022/10/17 12:17:53;;;;;;;5.65;2.70;;;16.40;99.90;;;;;;6224510;22;20020;-90
2022/10/17 12:20:27;;;;;;;5.18;2.45;;;16.40;99.90;;;;;;6224812;22;20154;-89
2022/10/17 12:23:16;;;;;;;6.53;2.35;;;16.40;99.90;;;;;;6224465;22;20039;-92
2022/10/17 12:25:58;;;;;;;4.25;2.05;;;16.40;99.90;;;;;;6224841;22;20016;-91
2022/10/17 12:28:36;;;;;;;5.60;2.30;;;16.40;99.90;;;;;;6224772;22;20020;-92
2022/10/17 13:15:06;;;;;;;5.78;2.67;;;16.50;99.90;;;;;;6243319;22;20024;-90
2022/10/17 13:17:31;;;;;;;6.65;2.50;;;16.50;99.90;;;;;;6191835;23;20405;-90
2022/10/17 13:20:00;;;;;;;7.00;2.22;;;16.50;99.90;;;;;;6167812;23;20027;-89
2022/10/17 14:14:30;;;;;;;4.03;1.50;;;16.10;99.90;;;;;;6269089;22;20027;-91
2022/10/17 14:17:20;;;;;;;3.57;1.63;;;16.10;99.90;;;;;;6226026;22;20023;-91
2022/10/17 14:20:18;;;;;;;3.20;1.00;;;16.00;99.90;;;;;;6225521;22;20058;-95
2022/10/17 14:22:54;;;;;;;2.92;1.10;;;16.00;99.90;;;;;;6227071;22;20393;-93
2022/10/17 15:07:21;;;;;;;2.75;1.10;;;15.80;99.90;;;;;;6268292;22;20028;-91
2022/10/17 15:09:47;;;;;;;;;;;15.80;99.90;;;;;;6226129;22;20110;-91
2022/10/17 15:12:19;;;;;;;3.45;1.00;;;15.80;99.90;;;;;;6225459;22;19999;-91
2022/10/17 15:14:46;;;;;;;3.17;1.10;;;15.80;99.90;;;;;;6225805;22;20089;-90
2022/10/17 15:17:21;;;;;;;3.03;1.10;;;15.80;99.90;;;;;;6224895;22;20054;-92
2022/10/17 15:58:40;;;;;;;2.78;0.98;;;15.80;99.90;;;;;;6308055;22;20027;-94
2022/10/17 16:01:06;;;;;;;3.10;0.93;;;15.80;99.90;;;;;;6255351;22;20019;-92
2022/10/17 16:03:32;;;;;;;2.40;0.98;;;15.70;99.90;;;;;;6255768;22;20011;-91
2022/10/17 16:05:58;;;;;;;;;;;15.70;99.90;;;;;;6256078;22;20130;-95
2022/10/17 16:08:24;;;;;;;2.17;0.80;;;15.70;99.90;;;;;;6230404;22;19946;-94
2022/10/17 16:10:52;;;;;;;2.03;0.73;;;15.70;99.90;;;;;;6230138;22;20015;-90
2022/10/17 16:13:21;;;;;;;3.08;1.05;;;15.70;99.90;;;;;;6255522;22;20027;-91
2022/10/17 16:15:47;;;;;;;4.55;1.17;;;15.70;99.90;;;;;;6255029;22;20535;-96
2022/10/17 16:18:13;;;;;;;2.03;0.77;;;15.60;99.90;;;;;;6255327;22;20022;-94
2022/10/17 16:20:39;;;;;;;2.65;0.93;;;15.60;99.90;;;;;;6256552;22;20073;-90
2022/10/17 16:23:06;;;;;;;2.35;0.85;;;15.60;99.90;;;;;;6256112;22;20077;-93
2022/10/17 16:25:32;;;;;;;2.40;0.85;;;15.60;99.90;;;;;;6255222;22;20060;-96
2022/10/17 16:27:59;;;;;;;2.65;0.95;;;15.50;99.90;;;;;;6230204;22;20367;-92
2022/10/17 16:30:28;;;;;;;1.80;0.80;;;15.50;99.90;;;;;;6255141;22;20050;-91
2022/10/17 16:32:55;;;;;;;2.33;0.90;;;15.50;99.90;;;;;;6254959;22;20049;-90
2022/10/17 16:35:24;;;;;;;3.70;0.90;;;15.50;99.90;;;;;;6255151;22;20019;-91
2022/10/17 16:37:56;;;;;;;4.03;1.30;;;15.50;99.90;;;;;;6280605;22;20076;-89
2022/10/17 16:40:24;;;;;;;3.17;1.08;;;15.50;99.90;;;;;;6254510;22;20026;-91
2022/10/17 16:42:50;;;;;;;2.55;1.05;;;15.50;99.90;;;;;;6255822;22;20015;-90
2022/10/17 16:45:29;;;;;;;3.97;1.23;;;15.50;99.90;;;;;;6230022;22;20038;-96
2022/10/17 16:47:55;;;;;;;2.28;1.05;;;15.50;99.90;;;;;;6230273;22;20016;-95
2022/10/17 16:50:23;;;;;;;4.75;1.00;;;15.50;99.90;;;;;;6255984;22;20019;-93
2022/10/17 16:52:49;;;;;;;3.25;1.00;;;15.40;99.90;;;;;;6254988;22;20477;-91
2022/10/17 16:55:17;;;;;;;2.50;0.95;;;15.50;99.90;;;;;;6255413;22;20051;-93
2022/10/17 17:03:22;;;;;;;2.72;1.00;;;15.40;99.90;;;;;;6285672;22;20387;-91
2022/10/17 17:05:51;;;;;;;;;;;15.40;99.90;;;;;;6259034;22;20019;-92
2022/10/17 17:08:17;;;;;;;2.83;1.15;;;15.40;99.90;;;;;;6284169;22;19915;-93
2022/10/17 17:10:49;;;;;;;3.35;1.40;;;15.40;99.90;;;;;;6283904;22;20050;-96
2022/10/17 17:28:52;;;;;;;3.50;1.30;;;15.40;99.90;;;;;;6317987;22;20019;-92
2022/10/17 17:31:23;;;;;;;4.28;1.88;;;15.30;99.90;;;;;;6278760;22;20029;-92
2022/10/17 17:33:50;;;;;;;3.55;1.58;;;15.30;99.90;;;;;;6267562;22;20018;-90
2022/10/17 17:36:19;;;;;;;4.55;1.70;;;15.30;99.90;;;;;;6257083;22;20068;-92
2022/10/17 17:38:45;;;;;;;3.40;1.48;;;15.30;99.90;;;;;;6255095;22;20012;-90
2022/10/17 17:41:13;;;;;;;3.95;1.55;;;15.30;99.90;;;;;;6257081;22;20026;-92
2022/10/17 17:43:39;;;;;;;3.28;1.63;;;15.30;99.90;;;;;;6282481;22;20042;-92
2022/10/17 17:46:06;;;;;;;3.45;1.40;;;15.30;99.90;;;;;;6282343;22;20019;-94
2022/10/17 17:48:32;;;;;;;3.08;1.48;;;15.30;99.90;;;;;;6256990;22;20063;-93
2022/10/17 17:51:02;;;;;;;3.70;1.40;;;15.30;99.90;;;;;;6231672;22;20090;-94
2022/10/17 17:53:28;;;;;;;3.20;1.50;;;15.30;99.90;;;;;;6257024;22;20015;-93
2022/10/17 17:56:12;;;;;;;4.22;1.48;;;15.20;99.90;;;;;;6231121;22;20080;-92
2022/10/17 17:58:39;;;;;;;3.33;1.65;;;15.20;99.90;;;;;;6256670;22;20448;-92
2022/10/17 18:01:09;;;;;;;;;;;15.20;99.90;;;;;;6282832;22;20019;-93
2022/10/17 18:03:38;;;;;;;5.53;2.05;;;15.20;99.90;;;;;;6282213;22;20048;-93
2022/10/17 18:06:05;;;;;;;4.93;2.08;;;15.20;99.90;;;;;;6285052;22;20015;-92
2022/10/17 18:08:31;;;;;;;4.75;2.00;;;15.10;99.90;;;;;;6266621;22;20106;-94
2022/10/17 18:10:57;;;;;;;4.65;2.40;;;15.20;99.90;;;;;;6257401;22;20011;-94
2022/10/17 18:13:23;;;;;;;;;;;15.20;99.90;;;;;;6257182;22;20019;-92
2022/10/17 18:15:56;;;;;;;5.18;2.10;;;15.10;99.90;;;;;;6257202;22;20342;-93
2022/10/17 18:18:24;;;;;;;4.90;2.40;;;15.20;99.90;;;;;;6256369;22;20016;-90
2022/10/17 18:20:49;;;;;;;5.80;2.38;;;15.10;99.90;;;;;;6256361;22;20020;-94
2022/10/17 18:23:17;;;;;;;5.60;2.70;;;15.10;99.90;;;;;;6256326;22;20069;-94
2022/10/17 18:25:51;;;;;;;5.15;2.30;;;15.20;99.90;;;;;;6232016;22;20012;-94
2022/10/17 18:28:18;;;;;;;6.82;2.75;;;15.10;99.90;;;;;;6233111;22;20015;-93
2022/10/17 18:30:43;;;;;;;5.80;2.90;;;15.20;99.90;;;;;;6230481;22;20446;-91
2022/10/17 18:33:09;;;;;;;5.25;2.70;;;15.10;99.90;;;;;;6254349;22;20026;-93
2022/10/17 18:35:35;;;;;;;4.97;2.53;;;15.10;99.90;;;;;;6254859;22;20015;-93